Catamarca, Catamarca International Airport (SANC)

NameCatamarca International Airport
CityCatamarca
CountryArgentina
ICAOSANC
IATACTC
Altitude464 m
CoordinatesGoogle Map
Live Air TrafficLiveATC.net
METARSANC 161445Z 20003KT 5000 VCSH SCT015 OVC030 18/17 Q1015
2019-03-16 14:45:00 Wind: South (200°) 1.54 m/s - Visibility: 5000 m - Weather: Vicinity Showers - Temperature: 18 °C - Dew point: 17 °C - Humidity: 93.9% - Pressure: 1015 hPa

Sorry, no flights used the airport in this database.